createdAt,value
2022-10-14T00:01:22.448Z,74.23
2022-10-14T00:04:06.342Z,80.83
2022-10-14T00:06:34.730Z,85.37
2022-10-14T00:09:04.770Z,72.07
2022-10-14T00:11:34.193Z,71.57
2022-10-14T00:14:07.997Z,74.13
2022-10-14T00:16:40.718Z,66.90
2022-10-14T00:19:10.509Z,60.33
2022-10-14T00:21:40.024Z,61.83
2022-10-14T00:24:08.869Z,62.03
2022-10-14T00:26:38.730Z,65.17
2022-10-14T00:29:09.088Z,51.80
2022-10-14T00:31:36.211Z,54.67
2022-10-14T00:34:03.971Z,55.80
2022-10-14T00:36:31.216Z,57.90
2022-10-14T00:38:58.008Z,54.40
2022-10-14T00:41:29.014Z,53.20
2022-10-14T00:44:03.975Z,55.80
2022-10-14T00:46:37.268Z,55.73
2022-10-14T00:49:11.752Z,55.67
2022-10-14T00:51:40.875Z,47.83
2022-10-14T00:54:09.564Z,49.27
2022-10-14T00:56:36.928Z,55.07
2022-10-14T00:59:06.920Z,53.23
2022-10-14T01:01:34.144Z,55.47
2022-10-14T01:04:01.129Z,49.93
2022-10-14T01:06:52.092Z,51.00
2022-10-14T01:09:28.137Z,52.80
2022-10-14T01:12:33.234Z,54.03
2022-10-14T01:15:27.444Z,53.93
2022-10-14T01:18:20.957Z,60.30
2022-10-14T01:21:19.071Z,57.13
2022-10-14T01:24:05.423Z,55.93
2022-10-14T01:26:51.958Z,57.73
2022-10-14T01:29:40.583Z,55.83
2022-10-14T01:32:31.513Z,50.73
2022-10-14T01:35:17.352Z,50.47
2022-10-14T01:38:10.329Z,53.53
2022-10-14T01:40:58.017Z,62.47
2022-10-14T01:43:28.343Z,55.90
2022-10-14T01:45:57.410Z,78.90
2022-10-14T01:48:30.413Z,96.03
2022-10-14T01:51:00.936Z,140.50
2022-10-14T01:53:36.287Z,151.20
2022-10-14T01:56:04.596Z,88.27
2022-10-14T01:58:34.524Z,77.73
2022-10-14T02:01:04.464Z,71.07
2022-10-14T02:03:43.400Z,67.03
2022-10-14T02:06:19.492Z,62.10
2022-10-14T02:09:08.849Z,62.43
2022-10-14T02:11:57.944Z,58.97
2022-10-14T02:14:32.963Z,61.43
2022-10-14T02:17:06.199Z,61.93
2022-10-14T02:19:52.410Z,64.67
2022-10-14T02:22:30.667Z,56.50
2022-10-14T02:25:03.160Z,61.63
2022-10-14T02:27:32.469Z,58.97
2022-10-14T02:30:00.535Z,56.43
2022-10-14T02:32:28.465Z,62.57
2022-10-14T02:34:58.513Z,65.33
2022-10-14T02:37:29.663Z,59.30
2022-10-14T02:40:06.115Z,57.00
2022-10-14T02:42:33.689Z,57.20
2022-10-14T02:45:04.129Z,58.87
2022-10-14T02:47:30.836Z,59.70
2022-10-14T02:49:57.791Z,62.20
2022-10-14T02:52:24.925Z,57.33
2022-10-14T02:54:53.251Z,56.07
2022-10-14T02:57:20.128Z,63.73
2022-10-14T02:59:48.432Z,62.50
2022-10-14T03:02:15.443Z,66.13
2022-10-14T03:04:42.551Z,67.83
2022-10-14T03:07:10.122Z,57.13
2022-10-14T03:09:43.024Z,66.80
2022-10-14T03:12:10.524Z,68.70
2022-10-14T03:14:38.456Z,61.00
2022-10-14T03:17:07.537Z,66.20
2022-10-14T03:19:34.590Z,67.63
2022-10-14T03:22:01.375Z,78.13
2022-10-14T03:24:29.171Z,81.43
2022-10-14T03:27:15.389Z,82.10
2022-10-14T03:29:43.533Z,75.33
2022-10-14T03:32:19.412Z,73.03
2022-10-14T03:35:18.670Z,62.90
2022-10-14T03:37:48.565Z,62.70
2022-10-14T03:40:18.336Z,59.47
2022-10-14T03:42:45.081Z,57.80
2022-10-14T03:45:12.908Z,63.10
2022-10-14T03:47:40.794Z,68.57
2022-10-14T03:50:07.927Z,68.07
2022-10-14T03:52:46.419Z,68.60
2022-10-14T03:55:22.610Z,74.43
2022-10-14T03:57:51.766Z,65.63
2022-10-14T04:00:19.463Z,71.33
2022-10-14T04:02:53.004Z,71.63
2022-10-14T04:05:40.391Z,73.17
2022-10-14T04:08:12.002Z,75.90
2022-10-14T04:10:42.843Z,72.33
2022-10-14T04:13:12.692Z,76.13
2022-10-14T04:15:40.344Z,77.63
2022-10-14T04:18:18.238Z,74.30
2022-10-14T04:20:47.015Z,82.37
2022-10-14T04:23:15.510Z,79.17
2022-10-14T04:25:45.802Z,84.17
2022-10-14T04:28:13.279Z,87.47
2022-10-14T04:30:57.339Z,96.07
2022-10-14T04:33:28.924Z,89.57
2022-10-14T04:36:04.770Z,91.20
2022-10-14T04:38:36.292Z,86.83
2022-10-14T04:41:06.668Z,90.43
2022-10-14T04:43:34.200Z,89.40
2022-10-14T04:46:14.839Z,90.33
2022-10-14T04:48:41.735Z,94.97
2022-10-14T04:51:08.539Z,96.10
2022-10-14T04:53:45.811Z,96.80
2022-10-14T04:56:29.038Z,92.83
2022-10-14T04:59:00.822Z,91.97
2022-10-14T05:01:51.582Z,85.40
2022-10-14T05:04:18.839Z,90.67
2022-10-14T05:06:48.193Z,93.13
2022-10-14T05:09:18.173Z,95.20
2022-10-14T05:11:45.768Z,96.30
2022-10-14T05:14:15.744Z,86.87
2022-10-14T05:16:46.036Z,86.63
2022-10-14T05:19:13.079Z,89.23
2022-10-14T05:21:48.178Z,90.80
2022-10-14T05:24:20.488Z,82.30
2022-10-14T05:26:47.481Z,84.57
2022-10-14T05:29:15.798Z,82.77
2022-10-14T05:31:42.837Z,78.00
2022-10-14T05:34:25.713Z,76.40
2022-10-14T05:36:52.758Z,83.17
2022-10-14T05:39:21.654Z,84.90
2022-10-14T05:41:48.446Z,75.93
2022-10-14T05:44:20.378Z,73.83
2022-10-14T05:46:48.646Z,78.00
2022-10-14T05:49:16.298Z,82.43
2022-10-14T05:51:44.228Z,85.83
2022-10-14T05:54:17.788Z,81.20
2022-10-14T05:56:44.714Z,94.10
2022-10-14T05:59:12.380Z,90.87
2022-10-14T06:01:40.656Z,103.20
2022-10-14T06:04:08.048Z,92.07
2022-10-14T06:06:34.913Z,98.67
2022-10-14T06:09:02.014Z,89.13
2022-10-14T06:11:28.842Z,101.03
2022-10-14T06:13:55.852Z,95.80
2022-10-14T06:16:22.883Z,95.43
2022-10-14T06:18:54.123Z,89.97
2022-10-14T06:21:22.943Z,78.93
2022-10-14T06:23:50.000Z,94.17
2022-10-14T06:26:16.796Z,102.27
2022-10-14T06:28:43.801Z,146.87
2022-10-14T06:31:10.856Z,187.83
2022-10-14T06:33:37.691Z,120.87
2022-10-14T06:36:05.822Z,95.33
2022-10-14T06:38:33.259Z,97.67
2022-10-14T06:41:00.120Z,96.77
2022-10-14T06:43:27.472Z,94.70
2022-10-14T06:45:57.304Z,94.27
2022-10-14T06:48:24.206Z,88.83
2022-10-14T06:50:50.963Z,97.97
2022-10-14T06:53:17.934Z,94.70
2022-10-14T06:55:44.849Z,88.43
2022-10-14T06:58:11.743Z,74.47
2022-10-14T07:00:38.714Z,75.70
2022-10-14T07:03:05.496Z,105.20
2022-10-14T07:05:32.569Z,60.70
2022-10-14T07:10:31.149Z,66.40
2022-10-14T07:12:57.911Z,67.97
2022-10-14T07:15:24.969Z,67.13
2022-10-14T07:17:51.704Z,60.38
2022-10-14T07:20:18.519Z,65.72
2022-10-14T07:22:45.541Z,63.25
2022-10-14T07:25:12.419Z,70.80
2022-10-14T07:27:39.137Z,70.05
2022-10-14T07:30:06.459Z,59.03
2022-10-14T07:32:37.008Z,59.80
2022-10-14T07:35:04.244Z,58.45
2022-10-14T07:37:31.184Z,58.97
2022-10-14T07:39:58.140Z,58.72
2022-10-14T07:42:24.975Z,50.63
2022-10-14T07:44:54.128Z,54.65
2022-10-14T07:47:21.642Z,48.35
2022-10-14T07:49:48.897Z,44.10
2022-10-14T07:52:16.308Z,46.90
2022-10-14T07:54:43.111Z,50.35
2022-10-14T07:57:09.859Z,39.90
2022-10-14T07:59:36.865Z,44.17
2022-10-14T08:02:04.361Z,49.55
2022-10-14T08:04:31.744Z,44.67
2022-10-14T08:06:58.584Z,54.33
2022-10-14T08:11:57.525Z,51.63
2022-10-14T08:14:24.286Z,50.05
2022-10-14T08:16:51.383Z,50.50
2022-10-14T08:19:18.293Z,50.50
2022-10-14T08:21:45.039Z,56.55
2022-10-14T08:24:12.246Z,52.20
2022-10-14T08:26:54.531Z,51.65
2022-10-14T08:29:24.586Z,54.00
2022-10-14T08:31:52.615Z,54.30
2022-10-14T08:34:24.390Z,52.40
2022-10-14T08:36:51.862Z,55.75
2022-10-14T08:39:19.891Z,45.58
2022-10-14T08:41:58.704Z,50.15
2022-10-14T08:44:47.411Z,53.42
2022-10-14T08:47:16.509Z,54.13
2022-10-14T08:49:58.588Z,51.38
2022-10-14T08:52:37.582Z,53.05
2022-10-14T08:55:21.580Z,54.53
2022-10-14T08:57:53.965Z,56.10
2022-10-14T09:00:21.862Z,49.13
2022-10-14T09:02:51.388Z,49.55
2022-10-14T09:05:22.703Z,57.53
2022-10-14T09:07:52.425Z,48.97
2022-10-14T09:10:25.540Z,56.20
2022-10-14T09:12:56.226Z,53.08
2022-10-14T09:15:32.440Z,60.67
2022-10-14T09:18:06.696Z,54.95
2022-10-14T09:20:34.080Z,58.70
2022-10-14T09:23:12.810Z,56.45
2022-10-14T09:25:45.928Z,57.60
2022-10-14T09:28:12.872Z,50.80
2022-10-14T09:30:40.621Z,47.05
2022-10-14T09:33:17.489Z,52.08
2022-10-14T09:35:44.514Z,61.58
2022-10-14T09:38:13.513Z,48.92
2022-10-14T09:40:53.940Z,50.60
2022-10-14T09:43:23.295Z,48.20
2022-10-14T09:46:07.802Z,47.03
2022-10-14T09:48:49.112Z,48.00
2022-10-14T09:51:22.045Z,50.70
2022-10-14T09:53:57.720Z,49.08
2022-10-14T09:56:31.879Z,48.30
2022-10-14T09:58:59.170Z,46.45
2022-10-14T10:01:28.980Z,42.00
2022-10-14T10:03:56.900Z,44.42
2022-10-14T10:06:26.463Z,45.15
2022-10-14T10:08:53.613Z,43.28
2022-10-14T10:11:38.022Z,46.72
2022-10-14T10:14:26.927Z,38.88
2022-10-14T10:17:09.839Z,41.45
2022-10-14T10:19:38.974Z,52.78
2022-10-14T10:22:28.459Z,48.72
2022-10-14T10:25:05.933Z,43.38
2022-10-14T10:27:45.666Z,48.72
2022-10-14T10:30:20.270Z,42.60
2022-10-14T10:33:18.099Z,42.50
2022-10-14T10:36:13.389Z,43.03
2022-10-14T10:38:49.678Z,43.88
2022-10-14T10:41:58.527Z,39.58
2022-10-14T10:44:40.222Z,39.65
2022-10-14T10:47:24.292Z,37.10
2022-10-14T10:52:42.687Z,38.47
2022-10-14T10:55:44.074Z,36.90
2022-10-14T10:58:50.322Z,37.17
2022-10-14T11:01:42.493Z,38.50
2022-10-14T11:04:24.666Z,34.83
2022-10-14T11:07:28.102Z,32.38
2022-10-14T11:10:30.026Z,40.78
2022-10-14T11:13:11.768Z,35.00
2022-10-14T11:15:55.563Z,37.13
2022-10-14T11:18:45.365Z,32.47
2022-10-14T11:21:35.632Z,42.42
2022-10-14T11:24:13.644Z,37.17
2022-10-14T11:27:01.782Z,33.75
2022-10-14T11:29:55.034Z,39.88
2022-10-14T11:32:48.197Z,39.80
2022-10-14T11:35:42.967Z,34.67
2022-10-14T11:38:15.950Z,38.65
2022-10-14T11:40:59.381Z,33.58
2022-10-14T11:43:29.275Z,33.33
2022-10-14T11:46:32.701Z,39.92
2022-10-14T11:49:05.641Z,38.85
2022-10-14T11:51:36.101Z,30.65
2022-10-14T11:54:05.756Z,33.65
2022-10-14T11:56:42.142Z,33.97
2022-10-14T11:59:21.324Z,31.83
2022-10-14T12:01:52.141Z,38.50
2022-10-14T12:04:33.860Z,41.65
2022-10-14T12:07:20.028Z,37.63
2022-10-14T12:09:59.873Z,32.42
2022-10-14T12:12:30.193Z,36.80
2022-10-14T12:15:05.765Z,36.13
2022-10-14T12:17:38.737Z,35.33
2022-10-14T12:20:36.159Z,38.47
2022-10-14T12:23:06.821Z,35.20
2022-10-14T12:25:46.578Z,35.25
2022-10-14T12:28:16.827Z,29.08
2022-10-14T12:30:44.055Z,36.08
2022-10-14T12:33:13.275Z,37.78
2022-10-14T12:35:50.760Z,40.88
2022-10-14T12:38:21.297Z,39.55
2022-10-14T12:40:49.262Z,33.72
2022-10-14T12:43:23.627Z,36.38
2022-10-14T12:46:10.258Z,39.55
2022-10-14T12:48:45.828Z,31.80
2022-10-14T12:51:22.507Z,25.15
2022-10-14T12:54:07.216Z,32.85
2022-10-14T12:56:38.428Z,35.00
2022-10-14T12:59:21.689Z,31.05
2022-10-14T13:01:55.886Z,33.50
2022-10-14T13:04:23.337Z,31.88
2022-10-14T13:07:42.138Z,36.67
2022-10-14T13:10:40.401Z,30.40
2022-10-14T13:13:38.196Z,31.92
2022-10-14T13:16:06.800Z,27.67
2022-10-14T13:18:36.316Z,30.00
2022-10-14T13:21:05.901Z,30.45
2022-10-14T13:23:49.696Z,33.85
2022-10-14T13:26:22.477Z,39.85
2022-10-14T13:29:07.899Z,36.28
2022-10-14T13:31:53.511Z,34.13
2022-10-14T13:34:52.791Z,28.55
2022-10-14T13:37:58.268Z,35.35
2022-10-14T13:40:37.611Z,34.00
2022-10-14T13:43:16.231Z,30.40
2022-10-14T13:45:47.425Z,31.20
2022-10-14T13:48:18.107Z,32.08
2022-10-14T13:50:50.512Z,32.08
2022-10-14T13:53:21.120Z,31.10
2022-10-14T13:55:54.791Z,29.35
2022-10-14T13:58:25.017Z,31.73
2022-10-14T14:00:58.067Z,32.25
2022-10-14T14:03:28.837Z,29.77
2022-10-14T14:05:56.773Z,32.38
2022-10-14T14:08:43.095Z,39.28
2022-10-14T14:11:19.068Z,29.73
2022-10-14T14:14:15.426Z,33.53
2022-10-14T14:16:55.894Z,30.67
2022-10-14T14:19:27.398Z,32.88
2022-10-14T14:22:21.027Z,39.33
2022-10-14T14:24:48.776Z,36.72
2022-10-14T14:27:19.219Z,42.42
2022-10-14T14:29:49.926Z,33.90
2022-10-14T14:32:20.637Z,26.90
2022-10-14T14:34:49.887Z,29.83
2022-10-14T14:37:48.172Z,24.98
2022-10-14T14:40:23.270Z,28.15
2022-10-14T14:42:59.376Z,26.88
2022-10-14T14:45:32.329Z,28.65
2022-10-14T14:48:04.232Z,34.40
2022-10-14T14:50:38.182Z,33.22
2022-10-14T14:53:32.503Z,26.73
2022-10-14T14:56:03.775Z,31.52
2022-10-14T14:58:44.065Z,31.58
2022-10-14T15:01:21.120Z,28.92
2022-10-14T15:04:12.812Z,29.98
2022-10-14T15:06:51.110Z,31.45
2022-10-14T15:09:47.376Z,28.13
2022-10-14T15:12:17.760Z,29.20
2022-10-14T15:14:53.627Z,29.35
2022-10-14T15:17:29.716Z,41.45
2022-10-14T15:19:59.889Z,40.13
2022-10-14T15:22:30.301Z,33.80
2022-10-14T15:25:02.329Z,30.63
2022-10-14T15:27:30.537Z,31.52
2022-10-14T15:30:16.413Z,37.47
2022-10-14T15:32:43.538Z,45.75
2022-10-14T15:35:18.123Z,42.40
2022-10-14T15:37:46.172Z,40.45
2022-10-14T15:40:16.329Z,45.30
2022-10-14T15:42:43.328Z,37.88
2022-10-14T15:45:10.745Z,43.78
2022-10-14T15:47:38.466Z,87.97
2022-10-14T15:50:17.819Z,50.72
2022-10-14T15:52:55.593Z,42.83
2022-10-14T15:55:29.699Z,40.03
2022-10-14T15:57:57.273Z,36.22
2022-10-14T16:00:24.621Z,44.78
2022-10-14T16:02:54.673Z,36.40
2022-10-14T16:05:22.097Z,35.50
2022-10-14T16:07:49.253Z,57.00
2022-10-14T16:10:19.331Z,43.30
2022-10-14T16:12:47.217Z,46.20
2022-10-14T16:15:29.159Z,57.75
2022-10-14T16:17:56.140Z,56.20
2022-10-14T16:20:23.567Z,85.10
2022-10-14T16:22:50.661Z,85.72
2022-10-14T16:25:35.278Z,51.72
2022-10-14T16:28:04.293Z,101.22
2022-10-14T16:30:35.269Z,57.35
2022-10-14T16:33:02.959Z,53.75
2022-10-14T16:35:30.428Z,54.55
2022-10-14T16:37:58.103Z,67.70
2022-10-14T16:40:25.336Z,94.45
2022-10-14T16:42:53.732Z,95.75
2022-10-14T16:45:20.727Z,95.38
2022-10-14T16:47:47.510Z,151.13
2022-10-14T16:50:14.376Z,84.57
2022-10-14T16:53:02.257Z,96.82
2022-10-14T16:55:32.132Z,109.32
2022-10-14T16:57:59.218Z,90.10
2022-10-14T17:00:26.128Z,181.60
2022-10-14T17:02:54.215Z,164.52
2022-10-14T17:05:21.248Z,116.03
2022-10-14T17:07:47.942Z,50.40
2022-10-14T17:10:15.011Z,128.65
2022-10-14T17:12:42.317Z,125.28
2022-10-14T17:15:09.572Z,71.97
2022-10-14T17:17:40.144Z,58.47
2022-10-14T17:20:09.326Z,58.90
2022-10-14T17:22:36.862Z,66.70
2022-10-14T17:25:05.157Z,80.22
2022-10-14T17:27:32.105Z,128.23
2022-10-14T17:29:59.291Z,106.60
2022-10-14T17:32:28.150Z,149.88
2022-10-14T17:34:55.121Z,132.85
2022-10-14T17:37:22.621Z,74.53
2022-10-14T17:39:49.483Z,81.13
2022-10-14T17:42:16.548Z,171.07
2022-10-14T17:44:45.806Z,178.27
2022-10-14T17:47:12.529Z,161.90
2022-10-14T17:49:39.591Z,58.13
2022-10-14T17:52:07.132Z,66.53
2022-10-14T17:54:34.028Z,135.63
2022-10-14T17:57:00.921Z,79.75
2022-10-14T17:59:27.959Z,121.20
2022-10-14T18:02:02.570Z,81.23
2022-10-14T18:04:30.231Z,56.03
2022-10-14T18:06:58.527Z,71.25
2022-10-14T18:09:25.280Z,120.53
2022-10-14T18:12:09.231Z,70.50
2022-10-14T18:14:40.686Z,181.03
2022-10-14T18:17:10.723Z,169.27
2022-10-14T18:19:38.209Z,73.23
2022-10-14T18:22:06.664Z,299.40
2022-10-14T18:24:36.996Z,101.03
2022-10-14T18:27:04.729Z,105.25
2022-10-14T18:29:31.480Z,55.10
2022-10-14T18:31:58.447Z,58.55
2022-10-14T18:34:27.291Z,64.38
2022-10-14T18:36:54.119Z,250.07
2022-10-14T18:39:21.165Z,54.22
2022-10-14T18:41:48.435Z,72.30
2022-10-14T18:44:15.333Z,62.30
2022-10-14T18:46:42.326Z,59.45
2022-10-14T18:49:11.544Z,54.08
2022-10-14T18:51:40.187Z,56.95
2022-10-14T18:54:16.090Z,55.35
2022-10-14T18:56:44.420Z,61.50
2022-10-14T18:59:17.803Z,63.78
2022-10-14T19:01:46.091Z,73.00
2022-10-14T19:04:15.937Z,67.97
2022-10-14T19:06:48.482Z,79.85
2022-10-14T19:09:16.992Z,78.18
2022-10-14T19:11:44.656Z,103.63
2022-10-14T19:14:13.103Z,129.50
2022-10-14T19:16:40.325Z,105.10
2022-10-14T19:19:15.153Z,117.43
2022-10-14T19:21:44.349Z,157.60
2022-10-14T19:24:12.788Z,111.57
2022-10-14T19:26:43.221Z,98.72
2022-10-14T19:29:13.074Z,105.70
2022-10-14T19:31:41.187Z,138.90
2022-10-14T19:34:11.340Z,100.68
2022-10-14T19:36:40.032Z,104.45
2022-10-14T19:39:08.915Z,111.85
2022-10-14T19:41:42.630Z,128.97
2022-10-14T19:44:10.906Z,120.10
2022-10-14T19:46:38.192Z,104.97
2022-10-14T19:49:05.984Z,97.95
2022-10-14T19:51:34.536Z,90.23
2022-10-14T19:54:02.309Z,113.93
2022-10-14T19:56:29.201Z,121.03
2022-10-14T19:58:58.130Z,100.33
2022-10-14T20:01:28.020Z,101.37
2022-10-14T20:03:55.124Z,100.30
2022-10-14T20:06:23.063Z,99.10
2022-10-14T20:08:50.173Z,97.25
2022-10-14T20:11:21.128Z,85.97
2022-10-14T20:13:48.729Z,90.07
2022-10-14T20:16:16.282Z,99.83
2022-10-14T20:18:43.090Z,88.77
2022-10-14T20:21:13.078Z,90.60
2022-10-14T20:23:40.791Z,88.43
2022-10-14T20:26:20.334Z,90.18
2022-10-14T20:28:48.207Z,86.18
2022-10-14T20:31:18.118Z,80.73
2022-10-14T20:33:45.416Z,82.22
2022-10-14T20:36:16.810Z,81.93
2022-10-14T20:38:44.139Z,90.07
2022-10-14T20:41:29.024Z,86.32
2022-10-14T20:43:57.249Z,96.17
2022-10-14T20:46:25.170Z,83.93
2022-10-14T20:48:56.711Z,86.68
2022-10-14T20:51:25.291Z,84.60
2022-10-14T20:54:03.092Z,83.47
2022-10-14T20:56:32.953Z,82.93
2022-10-14T20:59:01.973Z,86.37
2022-10-14T21:01:29.901Z,83.63
2022-10-14T21:04:01.235Z,82.40
2022-10-14T21:06:28.979Z,84.17
2022-10-14T21:08:57.036Z,84.37
2022-10-14T21:11:25.307Z,78.07
2022-10-14T21:13:54.748Z,74.17
2022-10-14T21:16:24.500Z,82.37
2022-10-14T21:18:57.619Z,80.13
2022-10-14T21:21:27.382Z,83.90
2022-10-14T21:23:54.978Z,75.13
2022-10-14T21:26:22.257Z,77.17
2022-10-14T21:28:49.160Z,74.65
2022-10-14T21:31:18.963Z,81.18
2022-10-14T21:33:47.806Z,76.55
2022-10-14T21:36:16.462Z,80.27
2022-10-14T21:38:43.745Z,82.73
2022-10-14T21:41:10.899Z,88.70
2022-10-14T21:43:38.789Z,98.27
2022-10-14T21:46:12.949Z,89.28
2022-10-14T21:48:40.808Z,88.63
2022-10-14T21:51:13.872Z,97.23
2022-10-14T21:53:41.825Z,84.67
2022-10-14T21:56:10.348Z,97.83
2022-10-14T21:58:37.707Z,90.67
2022-10-14T22:01:14.266Z,102.37
2022-10-14T22:03:43.201Z,97.70
2022-10-14T22:06:14.356Z,100.10
2022-10-14T22:08:43.357Z,96.40
2022-10-14T22:11:18.973Z,95.43
2022-10-14T22:13:46.409Z,93.72
2022-10-14T22:16:16.817Z,82.30
2022-10-14T22:18:46.691Z,88.43
2022-10-14T22:21:15.312Z,86.43
2022-10-14T22:23:42.614Z,80.88
2022-10-14T22:26:12.405Z,94.28
2022-10-14T22:28:39.400Z,90.35
2022-10-14T22:31:15.684Z,89.72
2022-10-14T22:33:43.522Z,89.63
2022-10-14T22:36:19.440Z,88.35
2022-10-14T22:38:50.428Z,85.10
2022-10-14T22:41:18.851Z,88.33
2022-10-14T22:43:56.546Z,92.37
2022-10-14T22:46:26.934Z,82.40
2022-10-14T22:48:56.298Z,79.63
2022-10-14T22:51:29.277Z,84.27
2022-10-14T22:53:56.309Z,79.63
2022-10-14T22:56:25.508Z,89.23
2022-10-14T22:58:58.513Z,83.32
2022-10-14T23:01:27.992Z,78.87
2022-10-14T23:03:56.526Z,82.28
2022-10-14T23:06:23.687Z,74.53
2022-10-14T23:08:50.781Z,75.78
2022-10-14T23:11:19.642Z,87.43
2022-10-14T23:13:47.195Z,86.55
2022-10-14T23:16:22.699Z,85.47
2022-10-14T23:18:49.837Z,83.47
2022-10-14T23:21:31.066Z,72.55
2022-10-14T23:24:00.629Z,83.43
2022-10-14T23:26:31.579Z,82.55
2022-10-14T23:28:59.299Z,78.35
2022-10-14T23:31:29.142Z,86.80
2022-10-14T23:34:01.543Z,90.55
2022-10-14T23:36:28.919Z,78.15
2022-10-14T23:38:55.758Z,83.97
2022-10-14T23:41:23.332Z,84.47
2022-10-14T23:43:51.673Z,79.88
2022-10-14T23:46:20.600Z,88.40
2022-10-14T23:48:55.654Z,82.15
2022-10-14T23:51:34.018Z,84.25
2022-10-14T23:54:01.078Z,93.10
2022-10-14T23:56:27.805Z,89.70
2022-10-14T23:58:54.662Z,87.45
